Time;durP1;ratioP1;P1;durP2;ratioP2;P2;SDS_P1;SDS_P2;PMS_P1;PMS_P2;Temp;Humidity;BMP_temperature;BMP_pressure;BME280_temperature;BME280_humidity;BME280_pressure;Samples;Min_cycle;Max_cycle;Signal;HPM_P1;HPM_P2
2023/11/03 00:01:05;;;;;;;0.90;0.70;;;;;;;;;;4969785;28;20239;-67
2023/11/03 00:03:30;;;;;;;1.97;1.00;;;;;;;;;;4982234;28;20206;-67
2023/11/03 00:05:57;;;;;;;3.07;1.10;;;;;;;;;;4987351;28;20180;-67
2023/11/03 00:08:22;;;;;;;2.13;1.00;;;;;;;;;;4989824;28;20226;-67
2023/11/03 00:10:47;;;;;;;2.37;1.00;;;;;;;;;;4993499;28;20207;-69
2023/11/03 00:13:12;;;;;;;1.90;0.80;;;;;;;;;;4993259;28;20196;-66
2023/11/03 00:15:37;;;;;;;2.03;0.70;;;;;;;;;;4989480;28;20210;-67
2023/11/03 00:18:03;;;;;;;2.73;0.90;;;;;;;;;;4982735;28;20714;-67
2023/11/03 00:20:29;;;;;;;2.00;0.70;;;;;;;;;;4984596;28;21039;-66
2023/11/03 00:22:54;;;;;;;2.23;1.10;;;;;;;;;;4983863;28;20180;-67
2023/11/03 00:25:19;;;;;;;3.33;1.10;;;;;;;;;;4978778;28;20176;-67
2023/11/03 00:27:46;;;;;;;2.03;0.80;;;;;;;;;;4977396;28;20179;-68
2023/11/03 00:30:12;;;;;;;2.73;0.83;;;;;;;;;;4981462;28;20211;-68
2023/11/03 00:32:37;;;;;;;2.67;0.80;;;;;;;;;;4983229;28;20267;-67
2023/11/03 00:35:06;;;;;;;1.47;0.80;;;;;;;;;;4983181;28;20282;-67
2023/11/03 00:37:31;;;;;;;4.90;1.37;;;;;;;;;;4982380;28;20187;-67
2023/11/03 00:39:57;;;;;;;4.53;0.90;;;;;;;;;;4984043;28;20649;-68
2023/11/03 00:42:22;;;;;;;5.17;1.10;;;;;;;;;;4983386;28;20184;-67
2023/11/03 00:44:47;;;;;;;2.03;0.90;;;;;;;;;;4981967;28;20267;-66
2023/11/03 00:47:12;;;;;;;3.97;1.00;;;;;;;;;;4959134;28;20179;-66
2023/11/03 00:49:37;;;;;;;1.97;1.20;;;;;;;;;;4974938;28;20199;-67
2023/11/03 00:52:06;;;;;;;13.43;1.00;;;;;;;;;;4970844;28;20536;-67
2023/11/03 00:54:32;;;;;;;1.67;0.83;;;;;;;;;;4968653;28;20907;-67
2023/11/03 00:56:57;;;;;;;1.67;0.90;;;;;;;;;;4975567;28;20201;-67
2023/11/03 00:59:22;;;;;;;1.83;1.20;;;;;;;;;;4992663;28;20190;-66
2023/11/03 01:01:47;;;;;;;3.53;1.27;;;;;;;;;;4991384;28;20207;-67
2023/11/03 01:04:12;;;;;;;4.60;0.90;;;;;;;;;;4996698;28;20192;-67
2023/11/03 01:06:39;;;;;;;2.80;0.63;;;;;;;;;;4990756;28;20183;-67
2023/11/03 01:09:04;;;;;;;2.43;0.80;;;;;;;;;;4991843;28;20187;-67
2023/11/03 01:11:29;;;;;;;2.03;0.90;;;;;;;;;;4989912;28;20200;-67
2023/11/03 01:13:56;;;;;;;1.53;1.17;;;;;;;;;;4991490;28;20176;-67
2023/11/03 01:16:22;;;;;;;1.87;1.13;;;;;;;;;;4991795;28;20180;-67
2023/11/03 01:18:47;;;;;;;2.87;1.53;;;;;;;;;;4990442;28;20184;-67
2023/11/03 01:21:15;;;;;;;2.07;1.10;;;;;;;;;;4991008;28;20898;-67
2023/11/03 01:23:43;;;;;;;2.23;1.00;;;;;;;;;;4989480;28;20226;-67
2023/11/03 01:26:09;;;;;;;3.93;1.50;;;;;;;;;;4991043;28;20225;-66
2023/11/03 01:28:34;;;;;;;3.63;1.10;;;;;;;;;;4989171;28;20184;-66
2023/11/03 01:31:00;;;;;;;3.13;1.37;;;;;;;;;;4993513;28;20203;-67
2023/11/03 01:33:26;;;;;;;3.00;1.20;;;;;;;;;;4978311;28;20176;-66
2023/11/03 01:35:51;;;;;;;2.73;0.90;;;;;;;;;;4977253;28;20214;-67
2023/11/03 01:38:16;;;;;;;3.03;1.30;;;;;;;;;;4972399;28;20184;-67
2023/11/03 01:40:41;;;;;;;2.57;1.47;;;;;;;;;;4981804;28;20293;-67
2023/11/03 01:43:06;;;;;;;2.37;1.20;;;;;;;;;;4994014;28;20172;-67
2023/11/03 01:45:32;;;;;;;2.47;1.30;;;;;;;;;;4992452;28;20181;-67
2023/11/03 01:47:57;;;;;;;5.87;1.70;;;;;;;;;;4999338;28;20176;-66
2023/11/03 01:50:23;;;;;;;3.53;1.37;;;;;;;;;;4998469;28;20234;-67
2023/11/03 01:52:48;;;;;;;4.83;1.30;;;;;;;;;;4995113;28;20234;-67
2023/11/03 01:55:14;;;;;;;2.13;1.03;;;;;;;;;;4990515;28;20535;-66
2023/11/03 01:57:39;;;;;;;5.70;1.60;;;;;;;;;;4972015;28;21009;-66
2023/11/03 02:00:05;;;;;;;3.63;1.33;;;;;;;;;;4970598;28;20278;-66
2023/11/03 02:02:31;;;;;;;3.60;1.00;;;;;;;;;;4985046;28;20259;-66
2023/11/03 02:04:57;;;;;;;2.53;1.10;;;;;;;;;;4970314;28;20206;-67
2023/11/03 02:07:22;;;;;;;3.17;1.13;;;;;;;;;;4971735;28;20279;-66
2023/11/03 02:09:47;;;;;;;2.63;1.50;;;;;;;;;;4973250;28;20294;-67
2023/11/03 02:12:12;;;;;;;3.40;1.60;;;;;;;;;;4972978;28;20194;-66
2023/11/03 02:14:38;;;;;;;2.57;1.10;;;;;;;;;;4974512;28;20660;-67
2023/11/03 02:17:03;;;;;;;1.30;1.03;;;;;;;;;;4973877;28;20237;-66
2023/11/03 02:19:29;;;;;;;3.17;1.30;;;;;;;;;;4975680;28;20176;-66
2023/11/03 02:21:54;;;;;;;1.93;0.90;;;;;;;;;;4973399;28;20192;-67
2023/11/03 02:24:20;;;;;;;3.70;1.03;;;;;;;;;;4971751;28;20235;-66
2023/11/03 02:26:45;;;;;;;1.80;1.20;;;;;;;;;;4969483;28;20183;-66
2023/11/03 02:29:10;;;;;;;1.70;1.60;;;;;;;;;;4971892;28;20210;-66
2023/11/03 02:31:36;;;;;;;4.30;1.53;;;;;;;;;;4971859;28;20298;-66
2023/11/03 02:34:03;;;;;;;3.27;1.60;;;;;;;;;;4971489;28;20218;-66
2023/11/03 02:36:28;;;;;;;3.93;1.10;;;;;;;;;;4974298;28;20817;-66
2023/11/03 02:38:54;;;;;;;3.90;1.30;;;;;;;;;;4975488;28;20179;-66
2023/11/03 02:41:19;;;;;;;3.20;1.20;;;;;;;;;;4984496;28;20216;-66
2023/11/03 02:43:45;;;;;;;2.50;1.47;;;;;;;;;;4970202;28;20180;-66
2023/11/03 02:46:10;;;;;;;4.27;1.20;;;;;;;;;;4969901;28;20241;-66
2023/11/03 02:48:35;;;;;;;2.57;0.90;;;;;;;;;;4973575;28;20283;-66
2023/11/03 02:51:03;;;;;;;3.40;1.07;;;;;;;;;;4971411;28;20234;-67
2023/11/03 02:53:28;;;;;;;1.73;1.37;;;;;;;;;;4973473;28;20192;-67
2023/11/03 02:55:53;;;;;;;3.47;1.80;;;;;;;;;;4969956;28;20180;-66
2023/11/03 02:58:24;;;;;;;2.50;1.17;;;;;;;;;;4991883;28;20187;-66
2023/11/03 03:00:49;;;;;;;3.77;1.23;;;;;;;;;;4988904;28;20294;-66
2023/11/03 03:03:14;;;;;;;4.67;1.50;;;;;;;;;;4991378;28;20267;-67
2023/11/03 03:05:40;;;;;;;7.80;1.50;;;;;;;;;;4991800;28;20176;-67
2023/11/03 03:08:05;;;;;;;5.90;1.60;;;;;;;;;;4986374;28;20260;-67
2023/11/03 03:10:30;;;;;;;3.87;1.63;;;;;;;;;;4988710;28;20558;-67
2023/11/03 03:12:56;;;;;;;5.17;1.00;;;;;;;;;;4990323;28;20180;-67
2023/11/03 03:15:21;;;;;;;5.97;1.00;;;;;;;;;;4991477;28;20254;-67
2023/11/03 03:17:46;;;;;;;1.53;1.03;;;;;;;;;;4989799;28;20560;-67
2023/11/03 03:20:11;;;;;;;4.67;1.20;;;;;;;;;;4990901;28;20678;-67
2023/11/03 03:22:37;;;;;;;1.63;0.70;;;;;;;;;;4988229;28;20196;-67
2023/11/03 03:25:02;;;;;;;4.20;1.03;;;;;;;;;;4990147;28;20187;-67
2023/11/03 03:27:27;;;;;;;2.67;1.07;;;;;;;;;;4986943;28;20188;-67
2023/11/03 03:29:52;;;;;;;2.40;0.90;;;;;;;;;;4970329;28;20238;-67
2023/11/03 03:32:17;;;;;;;2.50;0.70;;;;;;;;;;4970824;28;20199;-68
2023/11/03 03:34:43;;;;;;;2.53;0.77;;;;;;;;;;4969166;28;20270;-67
2023/11/03 03:37:08;;;;;;;2.17;0.70;;;;;;;;;;4969863;28;20212;-67
2023/11/03 03:39:33;;;;;;;1.10;0.70;;;;;;;;;;4969558;28;20227;-67
2023/11/03 03:41:58;;;;;;;2.37;0.57;;;;;;;;;;4970200;28;20478;-67
2023/11/03 03:44:23;;;;;;;5.37;1.30;;;;;;;;;;4968898;28;20183;-67
2023/11/03 03:46:49;;;;;;;2.43;0.90;;;;;;;;;;4968332;28;20191;-67
2023/11/03 03:49:14;;;;;;;3.67;1.10;;;;;;;;;;4987623;28;20188;-67
2023/11/03 03:51:39;;;;;;;8.70;1.17;;;;;;;;;;4968967;28;20653;-67
2023/11/03 03:54:04;;;;;;;3.07;0.80;;;;;;;;;;4970956;28;20184;-67
2023/11/03 03:56:29;;;;;;;2.80;0.70;;;;;;;;;;4967919;28;20191;-69
2023/11/03 03:58:55;;;;;;;5.37;1.17;;;;;;;;;;4968481;28;20180;-67
2023/11/03 04:01:22;;;;;;;2.43;0.80;;;;;;;;;;4972585;28;20694;-68
2023/11/03 04:03:47;;;;;;;5.53;1.67;;;;;;;;;;4968213;28;20187;-68
2023/11/03 04:06:12;;;;;;;3.10;0.87;;;;;;;;;;4969863;28;20183;-67
2023/11/03 04:08:37;;;;;;;7.17;1.20;;;;;;;;;;4969712;28;20215;-68
2023/11/03 04:11:05;;;;;;;3.97;1.27;;;;;;;;;;4969966;28;20566;-68
2023/11/03 04:13:31;;;;;;;3.37;0.90;;;;;;;;;;4968685;28;20211;-68
2023/11/03 04:15:56;;;;;;;7.13;1.20;;;;;;;;;;4969140;28;20187;-68
2023/11/03 04:18:22;;;;;;;3.17;1.00;;;;;;;;;;4969030;28;20179;-68
2023/11/03 04:20:47;;;;;;;5.17;1.40;;;;;;;;;;4968890;28;20211;-68
2023/11/03 04:23:15;;;;;;;3.77;1.50;;;;;;;;;;4971804;28;20278;-68
2023/11/03 04:25:41;;;;;;;3.27;1.37;;;;;;;;;;4968231;28;20182;-68
2023/11/03 04:28:06;;;;;;;5.77;1.17;;;;;;;;;;4967937;28;20588;-68
2023/11/03 04:30:35;;;;;;;5.57;1.43;;;;;;;;;;4969948;28;20573;-68
2023/11/03 04:33:03;;;;;;;2.73;1.23;;;;;;;;;;4984331;28;20187;-68
2023/11/03 04:35:28;;;;;;;6.53;1.27;;;;;;;;;;4989942;28;20260;-68
2023/11/03 04:37:54;;;;;;;3.57;1.37;;;;;;;;;;4993779;28;20643;-68
2023/11/03 04:40:20;;;;;;;3.60;1.00;;;;;;;;;;4990124;28;20730;-68
2023/11/03 04:42:46;;;;;;;5.23;1.30;;;;;;;;;;4988437;28;20179;-69
2023/11/03 04:45:11;;;;;;;8.77;1.47;;;;;;;;;;4989576;28;20552;-68
2023/11/03 04:47:36;;;;;;;10.07;1.43;;;;;;;;;;4990739;28;20651;-68
2023/11/03 04:50:01;;;;;;;5.73;1.27;;;;;;;;;;4990539;28;20218;-68
2023/11/03 04:52:27;;;;;;;3.63;1.10;;;;;;;;;;4988950;28;20234;-68
2023/11/03 04:54:52;;;;;;;4.10;1.00;;;;;;;;;;4990396;28;20182;-68
2023/11/03 04:57:18;;;;;;;5.03;1.00;;;;;;;;;;4991952;28;20754;-68
2023/11/03 04:59:43;;;;;;;5.77;1.63;;;;;;;;;;4992146;28;20194;-68
2023/11/03 05:02:08;;;;;;;5.83;1.13;;;;;;;;;;4989572;28;20183;-68
2023/11/03 05:04:34;;;;;;;3.43;1.47;;;;;;;;;;4990560;28;20260;-68
2023/11/03 05:06:59;;;;;;;4.57;1.10;;;;;;;;;;4993339;28;20647;-68
2023/11/03 05:09:24;;;;;;;8.63;1.63;;;;;;;;;;4994668;28;20270;-68
2023/11/03 05:11:49;;;;;;;5.63;1.10;;;;;;;;;;4993908;28;20286;-68
2023/11/03 05:14:15;;;;;;;5.37;0.97;;;;;;;;;;4994045;28;20187;-68
2023/11/03 05:16:40;;;;;;;8.27;1.33;;;;;;;;;;4988899;28;20175;-68
2023/11/03 05:19:05;;;;;;;4.63;1.00;;;;;;;;;;4991866;28;20281;-69
2023/11/03 05:21:30;;;;;;;6.30;1.53;;;;;;;;;;4995167;28;20622;-69
2023/11/03 05:23:55;;;;;;;12.40;2.30;;;;;;;;;;4990171;28;20587;-68
2023/11/03 05:26:21;;;;;;;6.73;1.17;;;;;;;;;;4993870;28;20210;-68
2023/11/03 05:28:46;;;;;;;4.23;1.27;;;;;;;;;;4978661;28;20690;-68
2023/11/03 05:31:13;;;;;;;12.10;1.90;;;;;;;;;;4972860;28;20262;-67
2023/11/03 05:33:38;;;;;;;5.93;1.30;;;;;;;;;;4973060;28;20216;-67
2023/11/03 05:36:03;;;;;;;6.83;1.53;;;;;;;;;;4969959;28;20275;-67
2023/11/03 05:38:28;;;;;;;6.53;1.60;;;;;;;;;;4970439;28;20893;-67
2023/11/03 05:40:54;;;;;;;6.63;1.77;;;;;;;;;;4971921;28;20579;-69
2023/11/03 05:43:19;;;;;;;8.93;1.80;;;;;;;;;;4970421;28;20198;-68
2023/11/03 05:45:44;;;;;;;8.90;2.40;;;;;;;;;;4971535;28;20849;-68
2023/11/03 05:48:09;;;;;;;9.17;1.77;;;;;;;;;;4970794;28;20277;-68
2023/11/03 05:50:35;;;;;;;6.97;1.87;;;;;;;;;;4978035;28;20210;-68
2023/11/03 05:53:00;;;;;;;3.93;1.80;;;;;;;;;;4971125;28;20272;-68
2023/11/03 05:55:26;;;;;;;4.53;2.10;;;;;;;;;;4971674;28;20189;-68
2023/11/03 05:57:51;;;;;;;5.73;1.83;;;;;;;;;;4970920;28;20188;-68
2023/11/03 06:00:17;;;;;;;6.10;1.90;;;;;;;;;;4971458;28;20219;-68
2023/11/03 06:02:42;;;;;;;6.97;2.07;;;;;;;;;;4972288;28;20553;-68
2023/11/03 06:05:07;;;;;;;3.83;1.60;;;;;;;;;;4971447;28;20188;-69
2023/11/03 06:07:34;;;;;;;6.70;1.93;;;;;;;;;;4970171;28;20704;-68
2023/11/03 06:09:59;;;;;;;5.20;2.03;;;;;;;;;;4969727;28;21692;-68
2023/11/03 06:12:24;;;;;;;6.23;1.87;;;;;;;;;;4970310;28;20180;-68
2023/11/03 06:14:50;;;;;;;4.33;1.87;;;;;;;;;;4970460;28;20183;-68
2023/11/03 06:17:15;;;;;;;10.30;2.63;;;;;;;;;;4973188;28;20841;-68
2023/11/03 06:19:40;;;;;;;5.77;2.50;;;;;;;;;;4971158;28;20750;-68
2023/11/03 06:22:05;;;;;;;10.27;2.70;;;;;;;;;;4969152;28;20199;-68
2023/11/03 06:24:30;;;;;;;4.27;2.27;;;;;;;;;;4970510;28;20180;-68
2023/11/03 06:26:59;;;;;;;6.87;2.93;;;;;;;;;;4970791;28;20925;-68
2023/11/03 06:29:24;;;;;;;7.10;2.23;;;;;;;;;;4971106;28;20180;-68
2023/11/03 06:31:49;;;;;;;3.73;2.30;;;;;;;;;;4971542;28;21248;-68
2023/11/03 06:34:15;;;;;;;9.53;2.77;;;;;;;;;;4971506;28;20179;-67
2023/11/03 06:36:40;;;;;;;12.50;3.33;;;;;;;;;;4968394;28;20207;-68
2023/11/03 06:39:05;;;;;;;7.93;3.10;;;;;;;;;;4968986;28;20627;-68
2023/11/03 06:41:30;;;;;;;8.40;3.37;;;;;;;;;;4969887;28;20592;-68
2023/11/03 06:43:55;;;;;;;8.93;3.27;;;;;;;;;;4970102;28;20199;-68
2023/11/03 06:46:22;;;;;;;9.20;2.70;;;;;;;;;;4970599;28;20226;-68
2023/11/03 06:48:47;;;;;;;6.67;3.43;;;;;;;;;;4975869;28;20180;-69
2023/11/03 06:51:12;;;;;;;9.43;2.50;;;;;;;;;;4968864;28;20277;-68
2023/11/03 06:53:37;;;;;;;5.80;2.37;;;;;;;;;;4973835;28;20232;-69
2023/11/03 06:56:03;;;;;;;11.10;2.93;;;;;;;;;;4970498;28;20274;-68
2023/11/03 06:58:28;;;;;;;7.93;2.90;;;;;;;;;;4992783;28;20191;-68
2023/11/03 07:00:54;;;;;;;12.90;2.83;;;;;;;;;;4992544;28;20258;-68
2023/11/03 07:03:19;;;;;;;11.00;2.33;;;;;;;;;;4995581;28;20179;-68
2023/11/03 07:05:46;;;;;;;7.20;2.63;;;;;;;;;;4992845;28;20191;-68
2023/11/03 07:08:11;;;;;;;12.27;2.90;;;;;;;;;;4989100;28;20181;-68
2023/11/03 07:10:36;;;;;;;10.63;2.47;;;;;;;;;;4993872;28;20261;-68
2023/11/03 07:13:03;;;;;;;11.83;3.17;;;;;;;;;;4993789;28;20176;-67
2023/11/03 07:15:30;;;;;;;17.47;3.47;;;;;;;;;;4992011;28;20176;-68
2023/11/03 07:17:57;;;;;;;15.30;2.67;;;;;;;;;;4991812;28;20175;-68
2023/11/03 07:20:23;;;;;;;8.43;2.43;;;;;;;;;;4993084;28;20206;-68
2023/11/03 07:22:49;;;;;;;8.90;2.33;;;;;;;;;;4992849;28;20198;-68
2023/11/03 07:25:14;;;;;;;15.93;2.43;;;;;;;;;;4991858;28;20187;-68
2023/11/03 07:27:40;;;;;;;6.43;2.37;;;;;;;;;;4992575;28;20259;-69
2023/11/03 07:30:05;;;;;;;12.83;2.70;;;;;;;;;;4982037;28;20234;-68
2023/11/03 07:32:30;;;;;;;10.67;2.63;;;;;;;;;;4971828;28;20188;-67
2023/11/03 07:34:56;;;;;;;13.20;2.63;;;;;;;;;;4972750;28;20187;-68
2023/11/03 07:37:21;;;;;;;12.23;2.57;;;;;;;;;;4970768;28;20225;-68
2023/11/03 07:39:47;;;;;;;5.87;1.87;;;;;;;;;;4970251;28;20223;-68
2023/11/03 07:42:13;;;;;;;9.47;2.10;;;;;;;;;;4971794;28;20219;-68
2023/11/03 07:44:38;;;;;;;10.83;2.43;;;;;;;;;;4971936;28;20273;-68
2023/11/03 07:47:06;;;;;;;10.27;1.80;;;;;;;;;;4971895;28;20190;-68
2023/11/03 07:49:31;;;;;;;9.93;2.57;;;;;;;;;;4975437;28;20181;-68
2023/11/03 07:51:57;;;;;;;10.43;2.20;;;;;;;;;;4973194;28;21315;-68
2023/11/03 07:54:22;;;;;;;7.77;2.20;;;;;;;;;;4970194;28;20180;-68
2023/11/03 07:56:47;;;;;;;7.50;1.47;;;;;;;;;;4970507;28;20729;-67
2023/11/03 07:59:12;;;;;;;6.17;2.37;;;;;;;;;;4972101;28;20219;-66
2023/11/03 08:01:37;;;;;;;11.37;3.23;;;;;;;;;;4968272;28;20219;-67
2023/11/03 08:04:04;;;;;;;6.93;1.90;;;;;;;;;;4968250;28;20180;-67
2023/11/03 08:06:29;;;;;;;10.17;1.70;;;;;;;;;;4965161;28;20218;-67
2023/11/03 08:08:54;;;;;;;12.73;2.27;;;;;;;;;;4969485;28;20243;-67
2023/11/03 08:11:21;;;;;;;13.27;2.10;;;;;;;;;;4969802;28;20203;-67
2023/11/03 08:13:46;;;;;;;11.17;2.50;;;;;;;;;;4970364;28;20191;-67
2023/11/03 08:16:11;;;;;;;8.43;1.60;;;;;;;;;;4967490;28;20654;-67
2023/11/03 08:18:37;;;;;;;10.30;2.10;;;;;;;;;;4970264;28;20219;-66
2023/11/03 08:21:02;;;;;;;9.10;2.63;;;;;;;;;;4970608;28;20223;-68
2023/11/03 08:23:27;;;;;;;9.07;1.50;;;;;;;;;;4969465;28;20202;-67
2023/11/03 08:25:53;;;;;;;9.27;2.37;;;;;;;;;;4968159;28;20572;-67
2023/11/03 08:28:18;;;;;;;8.40;1.90;;;;;;;;;;4966814;28;20187;-67
2023/11/03 08:30:44;;;;;;;9.23;3.07;;;;;;;;;;4969504;28;20605;-68
2023/11/03 08:33:09;;;;;;;6.37;1.87;;;;;;;;;;4969631;28;20196;-67
2023/11/03 08:35:35;;;;;;;9.80;2.17;;;;;;;;;;4970561;28;20214;-67
2023/11/03 08:38:00;;;;;;;10.60;2.40;;;;;;;;;;4971750;28;20226;-67
2023/11/03 08:40:26;;;;;;;5.73;2.43;;;;;;;;;;4971546;28;20293;-67
2023/11/03 08:42:51;;;;;;;12.20;1.87;;;;;;;;;;4971185;28;20183;-67
2023/11/03 08:45:17;;;;;;;6.00;2.03;;;;;;;;;;4970244;28;20249;-67
2023/11/03 08:47:43;;;;;;;9.20;2.70;;;;;;;;;;4970337;28;20275;-68
2023/11/03 08:50:11;;;;;;;7.00;2.13;;;;;;;;;;4973306;28;20273;-67
2023/11/03 08:52:37;;;;;;;11.23;1.87;;;;;;;;;;4972096;28;20266;-67
2023/11/03 08:55:06;;;;;;;12.00;2.30;;;;;;;;;;4969135;28;20191;-68
2023/11/03 08:57:32;;;;;;;10.53;2.20;;;;;;;;;;4981986;28;20535;-68
2023/11/03 08:59:58;;;;;;;16.43;1.60;;;;;;;;;;4990362;28;20215;-67
2023/11/03 09:02:23;;;;;;;14.07;2.40;;;;;;;;;;4991296;28;20175;-67
2023/11/03 09:04:48;;;;;;;4.47;1.70;;;;;;;;;;4989157;28;20184;-69
2023/11/03 09:07:13;;;;;;;7.87;2.13;;;;;;;;;;4989506;28;20210;-66
2023/11/03 09:09:39;;;;;;;7.27;2.13;;;;;;;;;;4993395;28;20207;-67
2023/11/03 09:12:04;;;;;;;15.63;2.23;;;;;;;;;;4991324;28;20251;-67
2023/11/03 09:14:30;;;;;;;7.80;2.13;;;;;;;;;;4993407;28;20210;-67
2023/11/03 09:16:55;;;;;;;10.17;1.67;;;;;;;;;;4990622;28;20621;-66
2023/11/03 09:19:20;;;;;;;11.33;2.03;;;;;;;;;;4991102;28;20183;-66
2023/11/03 09:21:45;;;;;;;8.07;1.77;;;;;;;;;;4995585;28;20670;-67
2023/11/03 09:24:10;;;;;;;10.80;2.23;;;;;;;;;;4987298;28;20263;-66
2023/11/03 09:26:36;;;;;;;6.53;1.90;;;;;;;;;;4997406;28;20713;-67
2023/11/03 09:29:01;;;;;;;5.40;1.55;;;;;;;;;;4995058;28;20187;-66
2023/11/03 09:31:28;;;;;;;11.60;2.35;;;;;;;;;;4985080;28;20204;-66
2023/11/03 09:33:55;;;;;;;6.88;2.33;;;;;;;;;;4970155;28;20238;-66
2023/11/03 09:36:20;;;;;;;9.18;2.17;;;;;;;;;;4969614;28;20664;-67
2023/11/03 09:38:46;;;;;;;4.83;1.53;;;;;;;;;;4968865;28;20294;-66
2023/11/03 09:41:13;;;;;;;11.32;2.10;;;;;;;;;;4968906;28;20219;-66
2023/11/03 09:43:40;;;;;;;10.35;2.00;;;;;;;;;;4968600;28;20183;-66
2023/11/03 09:46:05;;;;;;;5.95;2.05;;;;;;;;;;4969422;28;20211;-66
2023/11/03 09:48:32;;;;;;;12.13;2.15;;;;;;;;;;4969786;28;20905;-67
2023/11/03 09:50:57;;;;;;;11.40;1.92;;;;;;;;;;4970975;28;20219;-67
2023/11/03 09:53:25;;;;;;;9.38;1.42;;;;;;;;;;4972115;28;20556;-66
2023/11/03 09:55:50;;;;;;;5.35;1.80;;;;;;;;;;4972428;28;20254;-66
2023/11/03 09:58:16;;;;;;;10.90;1.75;;;;;;;;;;4970695;28;20188;-66
2023/11/03 10:00:42;;;;;;;8.18;1.95;;;;;;;;;;4971381;28;20461;-67
2023/11/03 10:03:08;;;;;;;8.57;1.70;;;;;;;;;;4978027;28;20168;-67
2023/11/03 10:05:36;;;;;;;8.23;1.83;;;;;;;;;;4972424;28;20179;-66
2023/11/03 10:08:20;;;;;;;6.70;1.90;;;;;;;;;;4972788;28;20203;-66
2023/11/03 10:10:48;;;;;;;8.88;2.25;;;;;;;;;;4972607;28;20203;-66
2023/11/03 10:13:15;;;;;;;8.45;1.98;;;;;;;;;;4970766;28;20221;-67
2023/11/03 10:15:42;;;;;;;10.00;2.17;;;;;;;;;;4971950;28;20184;-66
2023/11/03 10:18:07;;;;;;;5.38;1.55;;;;;;;;;;4972071;28;20211;-66
2023/11/03 10:20:32;;;;;;;7.10;2.00;;;;;;;;;;4971886;28;20830;-66
2023/11/03 10:22:58;;;;;;;13.50;2.17;;;;;;;;;;4973969;28;20187;-67
2023/11/03 10:25:27;;;;;;;5.65;1.80;;;;;;;;;;4971717;28;20271;-65
2023/11/03 10:27:54;;;;;;;7.32;1.73;;;;;;;;;;4967505;28;20180;-66
2023/11/03 10:30:19;;;;;;;6.55;2.55;;;;;;;;;;4971189;28;20262;-67
2023/11/03 10:32:44;;;;;;;15.55;2.15;;;;;;;;;;4974874;28;20667;-67
2023/11/03 10:35:10;;;;;;;10.85;1.80;;;;;;;;;;4975056;28;20187;-67
2023/11/03 10:37:36;;;;;;;9.63;1.80;;;;;;;;;;4971037;28;20254;-67
2023/11/03 10:40:01;;;;;;;10.57;2.38;;;;;;;;;;4971345;28;20782;-67
2023/11/03 10:42:28;;;;;;;8.55;2.15;;;;;;;;;;4971156;28;20839;-67
2023/11/03 10:44:56;;;;;;;5.78;1.83;;;;;;;;;;4971342;28;20673;-67
2023/11/03 10:47:26;;;;;;;5.72;1.83;;;;;;;;;;4970991;28;20188;-66
2023/11/03 10:49:54;;;;;;;9.30;2.17;;;;;;;;;;4971511;28;20227;-66
2023/11/03 10:52:27;;;;;;;5.43;2.00;;;;;;;;;;4974129;28;20663;-67
2023/11/03 10:54:56;;;;;;;4.00;1.42;;;;;;;;;;4971343;28;20670;-66
2023/11/03 10:57:21;;;;;;;8.10;2.28;;;;;;;;;;4977408;28;20203;-67
2023/11/03 10:59:49;;;;;;;9.77;1.80;;;;;;;;;;4992181;28;20680;-67
2023/11/03 11:02:21;;;;;;;10.13;3.08;;;;;;;;;;4990740;28;20187;-67
2023/11/03 11:04:55;;;;;;;9.32;1.48;;;;;;;;;;4995857;28;20183;-66
2023/11/03 11:07:21;;;;;;;6.43;1.85;;;;;;;;;;4993587;28;20714;-67
2023/11/03 11:09:46;;;;;;;9.63;2.25;;;;;;;;;;4998661;28;20286;-66
2023/11/03 11:12:13;;;;;;;13.60;3.10;;;;;;;;;;4997779;28;20221;-66
2023/11/03 11:14:39;;;;;;;6.20;1.75;;;;;;;;;;4993156;28;20688;-67
2023/11/03 11:17:15;;;;;;;5.25;1.88;;;;;;;;;;4997755;28;20178;-66
2023/11/03 11:19:42;;;;;;;6.85;2.00;;;;;;;;;;4996465;28;20536;-66
2023/11/03 11:22:08;;;;;;;12.60;1.42;;;;;;;;;;4997728;28;20207;-67
2023/11/03 11:24:34;;;;;;;8.05;2.08;;;;;;;;;;4991999;28;20218;-67
2023/11/03 11:27:17;;;;;;;10.45;2.78;;;;;;;;;;4995796;28;20182;-67
2023/11/03 11:29:43;;;;;;;8.48;1.63;;;;;;;;;;4991179;28;20480;-67
2023/11/03 11:32:11;;;;;;;7.20;1.35;;;;;;;;;;4986320;28;20187;-67
2023/11/03 11:34:39;;;;;;;6.07;1.95;;;;;;;;;;4970749;28;20191;-66
2023/11/03 11:37:20;;;;;;;8.70;1.55;;;;;;;;;;4970620;28;20184;-65
2023/11/03 11:39:45;;;;;;;4.10;1.80;;;;;;;;;;4974869;28;21026;-65
2023/11/03 11:42:12;;;;;;;8.75;1.67;;;;;;;;;;4970458;28;20181;-65
2023/11/03 11:44:39;;;;;;;12.60;1.75;;;;;;;;;;4970396;28;20175;-66
2023/11/03 11:47:05;;;;;;;7.18;1.52;;;;;;;;;;4969477;28;20190;-66
2023/11/03 11:49:31;;;;;;;6.03;1.73;;;;;;;;;;4973395;28;20183;-67
2023/11/03 11:51:58;;;;;;;6.25;1.45;;;;;;;;;;4973628;28;20195;-66
2023/11/03 11:54:24;;;;;;;7.45;1.60;;;;;;;;;;4970754;28;20550;-66
2023/11/03 11:56:49;;;;;;;8.10;1.83;;;;;;;;;;4970240;28;20207;-66
2023/11/03 11:59:18;;;;;;;3.20;1.30;;;;;;;;;;4969857;28;20224;-66
2023/11/03 12:01:46;;;;;;;7.38;1.83;;;;;;;;;;4969193;28;20568;-66
2023/11/03 12:04:11;;;;;;;15.95;2.40;;;;;;;;;;4969989;28;20203;-65
2023/11/03 12:06:37;;;;;;;5.68;1.05;;;;;;;;;;4973749;28;20279;-65
2023/11/03 12:09:02;;;;;;;7.47;1.58;;;;;;;;;;4969773;28;20276;-66
2023/11/03 12:11:27;;;;;;;3.72;1.25;;;;;;;;;;4969842;28;20294;-66
2023/11/03 12:13:52;;;;;;;5.53;1.30;;;;;;;;;;4969385;28;20188;-66
2023/11/03 12:16:20;;;;;;;5.22;1.70;;;;;;;;;;4969297;28;20193;-66
2023/11/03 12:18:49;;;;;;;7.43;1.92;;;;;;;;;;4970261;28;20184;-67
2023/11/03 12:21:15;;;;;;;6.43;1.88;;;;;;;;;;4972548;28;20350;-66
2023/11/03 12:23:40;;;;;;;8.65;2.45;;;;;;;;;;4969008;28;20644;-65
2023/11/03 12:26:08;;;;;;;5.95;1.35;;;;;;;;;;4969841;28;20204;-66
2023/11/03 12:28:33;;;;;;;6.80;2.20;;;;;;;;;;4969950;28;20671;-66
2023/11/03 12:30:59;;;;;;;13.65;1.50;;;;;;;;;;4970075;28;20302;-66
2023/11/03 12:33:26;;;;;;;8.23;1.67;;;;;;;;;;4971196;28;20198;-66
2023/11/03 12:35:54;;;;;;;8.95;1.58;;;;;;;;;;4970611;28;20184;-66
2023/11/03 12:38:19;;;;;;;7.57;1.45;;;;;;;;;;4969998;28;20187;-66
2023/11/03 12:40:47;;;;;;;4.22;1.52;;;;;;;;;;4970088;28;20749;-66
2023/11/03 12:43:13;;;;;;;5.32;1.42;;;;;;;;;;4970045;28;20289;-67
2023/11/03 12:45:38;;;;;;;3.83;1.10;;;;;;;;;;4969896;28;20266;-66
2023/11/03 12:48:16;;;;;;;4.68;2.00;;;;;;;;;;4968913;28;20596;-66
2023/11/03 12:50:49;;;;;;;7.95;1.35;;;;;;;;;;4974889;28;20273;-66
2023/11/03 12:53:14;;;;;;;10.88;1.60;;;;;;;;;;4972652;28;20187;-66
2023/11/03 12:55:40;;;;;;;14.10;1.88;;;;;;;;;;4969182;28;20695;-65
2023/11/03 12:58:10;;;;;;;8.80;1.75;;;;;;;;;;4983764;28;20287;-66
2023/11/03 13:00:36;;;;;;;4.20;1.08;;;;;;;;;;4993437;28;20219;-66
2023/11/03 13:03:02;;;;;;;6.40;1.35;;;;;;;;;;4992654;28;20176;-67
2023/11/03 13:05:28;;;;;;;6.50;2.33;;;;;;;;;;4992602;28;20168;-66
2023/11/03 13:07:56;;;;;;;10.68;1.67;;;;;;;;;;4993541;28;20183;-66
2023/11/03 13:10:27;;;;;;;6.80;1.60;;;;;;;;;;4992216;28;20211;-66
2023/11/03 13:12:52;;;;;;;5.65;1.55;;;;;;;;;;4993110;28;20183;-66
2023/11/03 13:15:17;;;;;;;4.30;1.42;;;;;;;;;;4995007;28;20270;-67
2023/11/03 13:17:43;;;;;;;7.50;1.60;;;;;;;;;;4991209;28;20590;-67
2023/11/03 13:20:15;;;;;;;6.93;1.40;;;;;;;;;;4994565;28;20210;-66
2023/11/03 13:22:41;;;;;;;8.13;1.48;;;;;;;;;;4990731;28;20560;-67
2023/11/03 13:25:06;;;;;;;9.40;1.58;;;;;;;;;;4992667;28;20555;-67
2023/11/03 13:27:31;;;;;;;4.97;1.33;;;;;;;;;;4991342;28;20179;-66
2023/11/03 13:29:58;;;;;;;7.13;1.88;;;;;;;;;;4993393;28;20218;-66
2023/11/03 13:32:23;;;;;;;2.08;1.13;;;;;;;;;;4977292;28;20558;-66
2023/11/03 13:34:49;;;;;;;2.72;1.75;;;;;;;;;;4972645;28;20175;-66
2023/11/03 13:37:15;;;;;;;11.48;1.63;;;;;;;;;;4975006;28;20211;-66
2023/11/03 13:39:41;;;;;;;6.53;1.13;;;;;;;;;;4972270;28;20220;-66
2023/11/03 13:42:07;;;;;;;10.13;1.45;;;;;;;;;;4973527;28;20290;-67
2023/11/03 13:44:32;;;;;;;5.43;1.35;;;;;;;;;;4972866;28;20176;-66
2023/11/03 13:46:58;;;;;;;6.18;1.00;;;;;;;;;;4972011;28;20702;-65
2023/11/03 13:49:23;;;;;;;9.35;1.48;;;;;;;;;;4977187;28;20855;-65
2023/11/03 13:51:48;;;;;;;3.85;1.27;;;;;;;;;;4974980;28;20207;-65
2023/11/03 13:54:16;;;;;;;11.20;1.35;;;;;;;;;;4972212;28;20273;-66
2023/11/03 13:56:41;;;;;;;6.30;1.40;;;;;;;;;;4972000;28;20195;-66
2023/11/03 13:59:06;;;;;;;8.20;1.00;;;;;;;;;;4969565;28;20824;-67
2023/11/03 14:01:32;;;;;;;4.15;0.73;;;;;;;;;;4971704;28;20215;-65
2023/11/03 14:03:57;;;;;;;11.85;1.83;;;;;;;;;;4976224;28;20206;-66
2023/11/03 14:06:22;;;;;;;5.70;1.05;;;;;;;;;;4978758;28;20195;-66
2023/11/03 14:08:49;;;;;;;6.80;1.45;;;;;;;;;;4972029;28;20179;-67
2023/11/03 14:11:15;;;;;;;4.65;1.15;;;;;;;;;;4972223;28;20207;-67
2023/11/03 14:13:41;;;;;;;5.20;1.63;;;;;;;;;;4972238;28;20237;-66
2023/11/03 14:16:06;;;;;;;5.80;1.58;;;;;;;;;;4972493;28;20186;-66
2023/11/03 14:18:31;;;;;;;5.07;1.55;;;;;;;;;;4971072;28;20188;-66
2023/11/03 14:20:58;;;;;;;8.27;1.30;;;;;;;;;;4973277;28;20269;-67
2023/11/03 14:23:29;;;;;;;5.15;1.42;;;;;;;;;;4972396;28;20188;-65
2023/11/03 14:25:55;;;;;;;4.35;0.90;;;;;;;;;;4972145;28;20234;-65
2023/11/03 14:28:20;;;;;;;4.25;0.82;;;;;;;;;;4971709;28;20187;-64
2023/11/03 14:30:47;;;;;;;2.58;1.10;;;;;;;;;;4971688;28;20293;-66
2023/11/03 14:33:12;;;;;;;6.93;2.13;;;;;;;;;;4973184;28;20273;-66